createdAt,value
2023-04-08T00:02:20.774Z,8.67
2023-04-08T00:04:53.334Z,8.69
2023-04-08T00:07:23.162Z,8.65
2023-04-08T00:09:53.096Z,8.51
2023-04-08T00:12:22.857Z,8.67
2023-04-08T00:14:52.595Z,8.57
2023-04-08T00:17:22.344Z,8.75
2023-04-08T00:19:55.514Z,8.84
2023-04-08T00:22:26.132Z,8.81
2023-04-08T00:24:55.917Z,8.73
2023-04-08T00:27:25.978Z,8.48
2023-04-08T00:29:55.767Z,8.64
2023-04-08T00:32:25.505Z,8.74
2023-04-08T00:34:58.465Z,8.47
2023-04-08T00:37:28.217Z,8.32
2023-04-08T00:39:57.915Z,8.72
2023-04-08T00:42:27.786Z,8.68
2023-04-08T00:44:57.618Z,8.75
2023-04-08T00:47:27.681Z,8.75
2023-04-08T00:50:00.527Z,8.94
2023-04-08T00:52:30.560Z,8.89
2023-04-08T00:55:00.391Z,8.91
2023-04-08T00:57:30.312Z,8.97
2023-04-08T01:00:00.072Z,8.95
2023-04-08T01:02:37.526Z,8.95
2023-04-08T01:05:14.157Z,9.00
2023-04-08T01:07:49.616Z,8.91
2023-04-08T01:10:25.027Z,8.84
2023-04-08T01:12:58.082Z,8.92
2023-04-08T01:15:29.755Z,8.65
2023-04-08T01:18:02.345Z,8.66
2023-04-08T01:20:35.244Z,8.61
2023-04-08T01:23:22.819Z,8.52
2023-04-08T01:25:56.469Z,8.33
2023-04-08T01:28:32.116Z,8.44
2023-04-08T01:31:05.019Z,8.40
2023-04-08T01:33:35.737Z,8.34
2023-04-08T01:36:06.444Z,8.29
2023-04-08T01:38:42.278Z,8.30
2023-04-08T01:41:14.894Z,8.31
2023-04-08T01:43:47.178Z,8.33
2023-04-08T01:46:18.085Z,8.14
2023-04-08T01:48:49.096Z,8.38
2023-04-08T01:51:20.217Z,8.24
2023-04-08T01:53:49.955Z,8.16
2023-04-08T01:56:25.071Z,8.22
2023-04-08T01:58:57.585Z,8.13
2023-04-08T02:01:30.029Z,8.17
2023-04-08T02:04:02.237Z,8.22
2023-04-08T02:06:33.236Z,8.27
2023-04-08T02:09:04.406Z,8.37
2023-04-08T02:11:36.731Z,8.41
2023-04-08T02:14:06.688Z,7.96
2023-04-08T02:16:43.398Z,8.30
2023-04-08T02:19:17.514Z,8.15
2023-04-08T02:21:50.863Z,8.17
2023-04-08T02:24:21.868Z,8.13
2023-04-08T02:26:55.978Z,8.13
2023-04-08T02:29:28.041Z,7.86
2023-04-08T02:31:58.960Z,8.15
2023-04-08T02:34:29.404Z,8.11
2023-04-08T02:36:59.328Z,8.12
2023-04-08T02:39:34.146Z,8.14
2023-04-08T02:42:07.075Z,8.14
2023-04-08T02:44:36.888Z,8.06
2023-04-08T02:47:06.672Z,8.06
2023-04-08T02:49:38.316Z,8.20
2023-04-08T02:52:08.245Z,8.17
2023-04-08T02:54:38.036Z,8.09
2023-04-08T02:57:10.382Z,8.21
2023-04-08T02:59:41.078Z,7.90
2023-04-08T03:02:11.008Z,8.18
2023-04-08T03:04:40.776Z,8.11
2023-04-08T03:07:10.499Z,8.15
2023-04-08T03:09:40.459Z,8.21
2023-04-08T03:12:12.899Z,8.31
2023-04-08T03:14:42.625Z,8.28
2023-04-08T03:17:12.455Z,8.06
2023-04-08T03:19:42.205Z,8.13
2023-04-08T03:22:12.607Z,8.27
2023-04-08T03:24:42.454Z,8.25
2023-04-08T03:27:15.743Z,8.23
2023-04-08T03:29:46.756Z,8.23
2023-04-08T03:32:16.810Z,8.21
2023-04-08T03:34:46.527Z,8.24
2023-04-08T03:37:16.503Z,8.25
2023-04-08T03:39:46.604Z,8.22
2023-04-08T03:42:19.025Z,7.91
2023-04-08T03:44:48.771Z,8.05
2023-04-08T03:47:18.506Z,8.23
2023-04-08T03:49:48.296Z,8.02
2023-04-08T03:52:18.011Z,8.02
2023-04-08T03:54:47.722Z,8.15
2023-04-08T03:57:20.002Z,8.06
2023-04-08T03:59:49.735Z,8.11
2023-04-08T04:02:19.675Z,8.09
2023-04-08T04:04:49.528Z,7.70
2023-04-08T04:07:19.271Z,8.05
2023-04-08T04:09:49.059Z,7.98
2023-04-08T04:12:21.784Z,8.07
2023-04-08T04:14:51.789Z,8.00
2023-04-08T04:17:21.663Z,7.92
2023-04-08T04:19:51.423Z,7.94
2023-04-08T04:22:21.306Z,7.88
2023-04-08T04:24:51.688Z,7.88
2023-04-08T04:27:23.995Z,7.83
2023-04-08T04:29:53.773Z,7.68
2023-04-08T04:32:23.561Z,7.67
2023-04-08T04:34:53.316Z,7.59
2023-04-08T04:37:23.313Z,7.51
2023-04-08T04:39:53.012Z,7.52
2023-04-08T04:42:25.607Z,7.63
2023-04-08T04:44:55.329Z,7.59
2023-04-08T04:47:25.167Z,7.41
2023-04-08T04:49:55.557Z,7.58
2023-04-08T04:52:25.276Z,7.67
2023-04-08T04:54:54.992Z,7.57
2023-04-08T04:57:27.505Z,7.69
2023-04-08T04:59:57.245Z,7.77
2023-04-08T05:02:27.158Z,7.72
2023-04-08T05:04:57.067Z,7.80
2023-04-08T05:07:26.878Z,7.80
2023-04-08T05:09:57.025Z,7.88
2023-04-08T05:12:29.817Z,7.91
2023-04-08T05:15:02.397Z,7.86
2023-04-08T05:17:32.161Z,7.88
2023-04-08T05:20:01.944Z,7.92
2023-04-08T05:22:31.734Z,7.85
2023-04-08T05:25:01.590Z,7.79
2023-04-08T05:27:33.903Z,7.89
2023-04-08T05:30:04.409Z,7.87
2023-04-08T05:32:34.168Z,7.55
2023-04-08T05:35:05.403Z,7.75
2023-04-08T05:37:35.077Z,7.64
2023-04-08T05:40:04.902Z,7.73
2023-04-08T05:42:37.212Z,7.73
2023-04-08T05:45:07.806Z,7.72
2023-04-08T05:47:37.593Z,7.77
2023-04-08T05:50:08.186Z,7.78
2023-04-08T05:52:37.920Z,7.73
2023-04-08T05:55:09.126Z,7.71
2023-04-08T05:57:41.453Z,7.77
2023-04-08T06:00:13.364Z,7.62
2023-04-08T06:02:43.358Z,7.81
2023-04-08T06:05:13.453Z,7.75
2023-04-08T06:07:43.180Z,7.71
2023-04-08T06:10:13.546Z,7.69
2023-04-08T06:12:45.911Z,7.76
2023-04-08T06:15:16.842Z,7.75
2023-04-08T06:17:46.634Z,7.68
2023-04-08T06:20:16.366Z,7.60
2023-04-08T06:22:46.386Z,7.66
2023-04-08T06:25:16.153Z,7.66
2023-04-08T06:27:48.628Z,7.65
2023-04-08T06:30:19.145Z,7.70
2023-04-08T06:32:49.881Z,7.77
2023-04-08T06:35:19.723Z,7.67
2023-04-08T06:37:49.456Z,7.85
2023-04-08T06:40:19.462Z,7.93
2023-04-08T06:42:51.795Z,8.05
2023-04-08T06:45:35.758Z,8.03
2023-04-08T06:48:06.959Z,8.04
2023-04-08T06:50:36.794Z,8.02
2023-04-08T06:53:06.556Z,7.98
2023-04-08T06:55:36.367Z,8.09
2023-04-08T06:58:08.708Z,8.17
2023-04-08T07:00:38.825Z,7.68
2023-04-08T07:03:08.640Z,7.90
2023-04-08T07:05:39.697Z,7.88
2023-04-08T07:08:09.554Z,7.61
2023-04-08T07:10:39.392Z,7.77
2023-04-08T07:13:11.749Z,7.90
2023-04-08T07:15:41.556Z,8.06
2023-04-08T07:18:12.327Z,8.06
2023-04-08T07:20:42.245Z,8.09
2023-04-08T07:23:12.711Z,8.14
2023-04-08T07:25:42.758Z,8.22
2023-04-08T07:28:15.085Z,8.02
2023-04-08T07:30:44.893Z,8.15
2023-04-08T07:33:15.881Z,8.06
2023-04-08T07:35:45.875Z,8.17
2023-04-08T07:38:15.868Z,8.05
2023-04-08T07:40:45.884Z,8.29
2023-04-08T07:43:18.228Z,8.40
2023-04-08T07:45:48.033Z,8.23
2023-04-08T07:48:17.903Z,8.27
2023-04-08T07:51:09.227Z,8.48
2023-04-08T07:53:37.901Z,8.31
2023-04-08T07:56:14.281Z,8.44
2023-04-08T07:58:46.974Z,8.42
2023-04-08T08:01:21.953Z,8.44
2023-04-08T08:03:52.882Z,8.42
2023-04-08T08:06:23.534Z,8.57
2023-04-08T08:08:53.308Z,8.54
2023-04-08T08:11:23.068Z,8.56
2023-04-08T08:13:55.614Z,8.35
2023-04-08T08:16:27.570Z,8.12
2023-04-08T08:18:57.365Z,7.45
2023-04-08T08:21:27.302Z,8.50
2023-04-08T08:23:57.448Z,8.50
2023-04-08T08:26:27.551Z,8.52
2023-04-08T08:28:59.947Z,8.57
2023-04-08T08:31:29.852Z,8.64
2023-04-08T08:34:00.263Z,8.87
2023-04-08T08:36:34.633Z,8.74
2023-04-08T08:39:05.472Z,8.88
2023-04-08T08:41:39.039Z,8.93
2023-04-08T08:44:13.003Z,8.93
2023-04-08T08:46:46.895Z,8.98
2023-04-08T08:49:16.913Z,8.72
2023-04-08T08:51:49.336Z,8.25
2023-04-08T08:54:19.140Z,8.88
2023-04-08T08:56:49.255Z,8.99
2023-04-08T08:59:21.567Z,9.17
2023-04-08T09:01:51.547Z,9.26
2023-04-08T09:04:23.171Z,9.48
2023-04-08T09:07:11.255Z,9.46
2023-04-08T09:09:51.925Z,9.32
2023-04-08T09:12:22.163Z,9.33
2023-04-08T09:15:06.461Z,9.47
2023-04-08T09:17:38.425Z,9.35
2023-04-08T09:20:15.556Z,9.45
2023-04-08T09:23:03.425Z,9.25
2023-04-08T09:25:35.436Z,9.39
2023-04-08T09:28:05.719Z,9.47
2023-04-08T09:30:38.267Z,9.68
2023-04-08T09:33:08.678Z,9.82
2023-04-08T09:35:38.961Z,9.81
2023-04-08T09:38:08.784Z,9.77
2023-04-08T09:40:40.492Z,9.83
2023-04-08T09:43:14.680Z,9.79
2023-04-08T09:45:49.646Z,9.80
2023-04-08T09:48:26.212Z,8.97
2023-04-08T09:51:03.317Z,9.84
2023-04-08T09:53:37.155Z,9.68
2023-04-08T09:56:11.123Z,9.93
2023-04-08T09:58:44.625Z,9.71
2023-04-08T10:01:19.625Z,9.98
2023-04-08T10:03:53.724Z,10.20
2023-04-08T10:06:25.890Z,10.23
2023-04-08T10:08:55.716Z,10.27
2023-04-08T10:11:26.178Z,10.32
2023-04-08T10:13:56.333Z,10.70
2023-04-08T10:16:30.102Z,10.63
2023-04-08T10:19:00.207Z,10.40
2023-04-08T10:21:40.064Z,10.22
2023-04-08T10:24:11.210Z,10.01
2023-04-08T10:26:43.118Z,10.39
2023-04-08T10:29:46.573Z,10.47
2023-04-08T10:32:33.462Z,10.58
2023-04-08T10:35:04.510Z,10.49
2023-04-08T10:37:34.532Z,10.21
2023-04-08T10:40:04.391Z,10.50
2023-04-08T10:42:34.413Z,10.64
2023-04-08T10:45:05.077Z,10.62
2023-04-08T10:47:37.473Z,10.46
2023-04-08T10:50:16.124Z,10.70
2023-04-08T10:52:50.234Z,10.58
2023-04-08T10:55:25.411Z,10.39
2023-04-08T10:57:58.123Z,10.37
2023-04-08T11:00:37.288Z,10.30
2023-04-08T11:03:11.672Z,10.38
2023-04-08T11:05:43.848Z,10.47
2023-04-08T11:08:13.658Z,10.32
2023-04-08T11:10:45.138Z,10.61
2023-04-08T11:13:15.025Z,10.55
2023-04-08T11:15:45.686Z,10.85
2023-04-08T11:18:18.592Z,10.98
2023-04-08T11:20:48.374Z,11.23
2023-04-08T11:23:18.175Z,11.29
2023-04-08T11:25:49.667Z,11.25
2023-04-08T11:28:21.763Z,11.46
2023-04-08T11:30:51.862Z,11.62
2023-04-08T11:33:28.175Z,11.61
2023-04-08T11:35:57.968Z,11.44
2023-04-08T11:38:30.962Z,11.19
2023-04-08T11:41:02.680Z,11.52
2023-04-08T11:43:32.414Z,11.51
2023-04-08T11:46:02.659Z,11.39
2023-04-08T11:48:35.098Z,11.48
2023-04-08T11:51:09.380Z,11.57
2023-04-08T11:53:39.570Z,11.60
2023-04-08T11:56:22.562Z,11.75
2023-04-08T11:58:52.608Z,11.61
2023-04-08T12:01:23.843Z,11.69
2023-04-08T12:04:00.331Z,11.40
2023-04-08T12:06:31.913Z,11.58
2023-04-08T12:09:01.750Z,11.43
2023-04-08T12:11:31.565Z,11.32
2023-04-08T12:14:01.311Z,11.53
2023-04-08T12:16:31.134Z,11.60
2023-04-08T12:19:03.552Z,11.64
2023-04-08T12:21:34.060Z,11.47
2023-04-08T12:24:03.827Z,11.70
2023-04-08T12:26:33.593Z,11.72
2023-04-08T12:29:03.330Z,11.82
2023-04-08T12:31:33.167Z,11.81
2023-04-08T12:34:06.997Z,11.83
2023-04-08T12:36:36.788Z,11.73
2023-04-08T12:39:06.789Z,11.72
2023-04-08T12:41:36.607Z,11.39
2023-04-08T12:44:06.786Z,11.51
2023-04-08T12:46:36.642Z,11.37
2023-04-08T13:05:05.870Z,11.53
2023-04-08T13:10:56.865Z,9.86
2023-04-08T13:13:26.828Z,11.71
2023-04-08T13:15:56.764Z,11.76
2023-04-08T13:18:26.521Z,11.83
2023-04-08T13:20:59.063Z,12.07
2023-04-08T13:23:28.827Z,11.87
2023-04-08T13:25:58.578Z,11.66
2023-04-08T13:28:28.444Z,11.78
2023-04-08T13:30:58.450Z,11.77
2023-04-08T13:33:28.195Z,11.40
2023-04-08T13:36:00.644Z,11.32
2023-04-08T13:38:30.943Z,11.36
2023-04-08T13:41:00.711Z,11.50
2023-04-08T13:43:31.097Z,11.53
2023-04-08T13:46:01.082Z,11.75
2023-04-08T13:48:31.021Z,11.69
2023-04-08T13:51:03.667Z,11.26
2023-04-08T13:53:33.583Z,11.36
2023-04-08T13:56:03.320Z,11.45
2023-04-08T13:58:33.147Z,11.55
2023-04-08T14:01:02.892Z,11.44
2023-04-08T14:03:32.696Z,11.49
2023-04-08T14:06:04.995Z,11.55
2023-04-08T14:08:34.775Z,11.64
2023-04-08T14:11:04.521Z,11.64
2023-04-08T14:13:34.739Z,11.62
2023-04-08T14:16:04.561Z,11.30
2023-04-08T14:18:34.281Z,11.47
2023-04-08T14:21:07.575Z,11.68
2023-04-08T14:23:37.312Z,11.77
2023-04-08T14:26:07.107Z,11.70
2023-04-08T14:28:36.847Z,11.86
2023-04-08T14:31:06.812Z,11.80
2023-04-08T14:33:36.983Z,11.57
2023-04-08T14:36:09.991Z,11.53
2023-04-08T14:38:39.747Z,11.63
2023-04-08T14:41:09.528Z,11.74
2023-04-08T14:43:39.259Z,11.66
2023-04-08T14:46:09.257Z,11.70
2023-04-08T14:48:39.051Z,12.05
2023-04-08T14:51:11.471Z,11.99
2023-04-08T14:53:41.422Z,11.99
2023-04-08T14:56:11.588Z,12.15
2023-04-08T14:58:41.401Z,11.98
2023-04-08T15:01:11.699Z,12.25
2023-04-08T15:03:41.613Z,11.85
2023-04-08T15:06:17.084Z,11.98
2023-04-08T15:08:46.873Z,11.78
2023-04-08T15:11:16.811Z,11.73
2023-04-08T15:13:46.872Z,11.77
2023-04-08T15:16:16.878Z,11.84
2023-04-08T15:18:46.837Z,11.73
2023-04-08T15:21:19.192Z,12.14
2023-04-08T15:23:49.050Z,12.01
2023-04-08T15:26:18.841Z,11.95
2023-04-08T15:28:49.372Z,11.62
2023-04-08T15:31:19.727Z,12.12
2023-04-08T15:33:49.970Z,11.68
2023-04-08T15:36:22.800Z,11.92
2023-04-08T15:38:53.158Z,11.72
2023-04-08T15:41:24.076Z,11.75
2023-04-08T15:43:55.229Z,11.95
2023-04-08T15:46:25.036Z,11.88
2023-04-08T15:48:55.098Z,11.82
2023-04-08T15:51:27.962Z,11.53
2023-04-08T15:53:57.710Z,11.52
2023-04-08T15:56:29.571Z,11.31
2023-04-08T15:58:59.414Z,11.39
2023-04-08T16:01:29.253Z,11.51
2023-04-08T16:03:59.137Z,11.39
2023-04-08T16:06:31.575Z,11.36
2023-04-08T16:09:01.447Z,11.46
2023-04-08T16:11:31.315Z,11.41
2023-04-08T16:14:01.065Z,10.93
2023-04-08T16:16:31.192Z,11.47
2023-04-08T16:19:02.434Z,11.40
2023-04-08T16:21:34.846Z,11.39
2023-04-08T16:24:05.394Z,11.17
2023-04-08T16:26:35.372Z,11.35
2023-04-08T16:29:05.151Z,11.20
2023-04-08T16:31:34.932Z,11.32
2023-04-08T16:34:05.209Z,11.05
2023-04-08T16:36:37.784Z,11.05
2023-04-08T16:39:07.726Z,11.11
2023-04-08T16:41:37.474Z,11.05
2023-04-08T16:44:07.328Z,11.28
2023-04-08T16:46:37.167Z,11.20
2023-04-08T16:49:06.917Z,11.39
2023-04-08T16:51:39.241Z,11.41
2023-04-08T16:54:08.974Z,11.44
2023-04-08T16:56:44.403Z,11.37
2023-04-08T16:59:14.593Z,11.56
2023-04-08T17:01:44.440Z,11.45
2023-04-08T17:04:14.253Z,11.37
2023-04-08T17:06:47.241Z,11.59
2023-04-08T17:09:16.977Z,11.32
2023-04-08T17:11:46.913Z,11.42
2023-04-08T17:14:16.694Z,11.28
2023-04-08T17:16:46.693Z,11.12
2023-04-08T17:19:16.849Z,11.06
2023-04-08T17:21:49.242Z,11.28
2023-04-08T17:24:19.054Z,10.91
2023-04-08T17:26:49.462Z,11.20
2023-04-08T17:29:19.176Z,11.28
2023-04-08T17:31:48.951Z,11.29
2023-04-08T17:34:18.850Z,11.07
2023-04-08T17:36:51.461Z,11.27
2023-04-08T17:39:21.885Z,11.18
2023-04-08T17:41:51.650Z,10.94
2023-04-08T17:44:21.925Z,11.15
2023-04-08T17:46:51.668Z,10.99
2023-04-08T17:49:21.604Z,11.17
2023-04-08T17:51:54.420Z,11.27
2023-04-08T17:54:24.524Z,11.04
2023-04-08T17:56:54.252Z,11.11
2023-04-08T17:59:24.122Z,11.14
2023-04-08T18:01:54.496Z,11.25
2023-04-08T18:04:24.583Z,11.26
2023-04-08T18:06:57.326Z,11.28
2023-04-08T18:09:27.149Z,11.19
2023-04-08T18:11:56.900Z,11.11
2023-04-08T18:14:26.778Z,11.15
2023-04-08T18:16:56.663Z,11.01
2023-04-08T18:19:27.229Z,10.92
2023-04-08T18:21:59.690Z,10.69
2023-04-08T18:24:29.444Z,11.06
2023-04-08T18:27:04.505Z,11.05
2023-04-08T18:29:34.769Z,10.83
2023-04-08T18:32:04.637Z,11.14
2023-04-08T18:34:34.612Z,10.82
2023-04-08T18:37:07.507Z,10.99
2023-04-08T18:39:37.487Z,11.16
2023-04-08T18:42:07.428Z,11.01
2023-04-08T18:44:37.203Z,11.33
2023-04-08T18:47:07.549Z,11.11
2023-04-08T18:49:38.841Z,11.05
2023-04-08T18:52:11.527Z,11.14
2023-04-08T18:54:41.303Z,10.97
2023-04-08T18:57:11.194Z,10.82
2023-04-08T18:59:40.962Z,10.93
2023-04-08T19:02:10.913Z,11.15
2023-04-08T19:04:41.051Z,11.20
2023-04-08T19:07:13.593Z,11.23
2023-04-08T19:09:43.746Z,11.18
2023-04-08T19:12:13.900Z,10.82
2023-04-08T19:14:43.848Z,11.13
2023-04-08T19:17:13.644Z,11.15
2023-04-08T19:19:43.644Z,11.01
2023-04-08T19:22:16.813Z,10.84
2023-04-08T19:24:46.805Z,11.18
2023-04-08T19:27:17.025Z,11.17
2023-04-08T19:29:47.020Z,11.15
2023-04-08T19:32:17.061Z,10.72
2023-04-08T19:34:47.268Z,10.48
2023-04-08T19:37:20.376Z,10.74
2023-04-08T19:39:50.541Z,10.73
2023-04-08T19:42:20.636Z,10.42
2023-04-08T19:44:50.962Z,10.79
2023-04-08T19:47:21.096Z,10.64
2023-04-08T19:49:51.128Z,10.79
2023-04-08T19:52:23.813Z,11.10
2023-04-08T19:54:54.170Z,11.05
2023-04-08T19:57:24.275Z,11.05
2023-04-08T19:59:56.197Z,10.83
2023-04-08T20:02:26.081Z,10.89
2023-04-08T20:04:56.437Z,10.88
2023-04-08T20:07:29.040Z,10.49
2023-04-08T20:09:59.525Z,10.53
2023-04-08T20:12:30.596Z,10.40
2023-04-08T20:15:01.646Z,10.74
2023-04-08T20:17:31.945Z,10.75
2023-04-08T20:20:02.134Z,10.73
2023-04-08T20:22:34.628Z,10.82
2023-04-08T20:25:05.698Z,10.58
2023-04-08T20:27:36.573Z,10.77
2023-04-08T20:30:07.472Z,10.44
2023-04-08T20:32:37.491Z,10.88
2023-04-08T20:35:08.058Z,10.45
2023-04-08T20:37:40.878Z,10.42
2023-04-08T20:40:12.513Z,10.53
2023-04-08T20:42:42.723Z,10.79
2023-04-08T20:45:13.899Z,10.49
2023-04-08T20:47:44.875Z,10.87
2023-04-08T20:50:15.436Z,10.87
2023-04-08T20:52:48.164Z,10.92
2023-04-08T20:55:18.119Z,10.84
2023-04-08T20:57:48.173Z,10.80
2023-04-08T21:00:18.560Z,10.57
2023-04-08T21:02:48.653Z,10.48
2023-04-08T21:05:18.745Z,10.83
2023-04-08T21:07:51.301Z,10.45
2023-04-08T21:10:21.431Z,10.68
2023-04-08T21:12:51.313Z,10.45
2023-04-08T21:15:22.083Z,10.59
2023-04-08T21:17:51.916Z,10.55
2023-04-08T21:20:21.777Z,10.46
2023-04-08T21:22:54.179Z,10.20
2023-04-08T21:25:24.994Z,10.06
2023-04-08T21:27:54.739Z,10.21
2023-04-08T21:30:25.505Z,10.12
2023-04-08T21:33:01.916Z,9.81
2023-04-08T21:35:33.698Z,9.75
2023-04-08T21:38:06.885Z,10.00
2023-04-08T21:40:37.048Z,9.13
2023-04-08T21:43:07.368Z,9.72
2023-04-08T21:45:37.453Z,8.35
2023-04-08T21:48:07.967Z,9.30
2023-04-08T21:50:41.966Z,9.38
2023-04-08T21:53:15.056Z,8.86
2023-04-08T21:55:48.095Z,9.08
2023-04-08T21:58:18.279Z,8.70
2023-04-08T22:00:49.659Z,8.20
2023-04-08T22:03:20.042Z,9.10
2023-04-08T22:05:49.956Z,9.21
2023-04-08T22:08:23.287Z,9.19
2023-04-08T22:10:54.354Z,9.15
2023-04-08T22:13:24.306Z,8.69
2023-04-08T22:15:54.370Z,8.77
2023-04-08T22:18:24.410Z,9.01
2023-04-08T22:20:54.539Z,9.11
2023-04-08T22:23:27.276Z,9.03
2023-04-08T22:25:57.319Z,9.11
2023-04-08T22:28:27.505Z,8.83
2023-04-08T22:30:57.691Z,8.68
2023-04-08T22:33:27.999Z,8.93
2023-04-08T22:35:59.884Z,8.94
2023-04-08T22:38:32.847Z,8.89
2023-04-08T22:41:02.699Z,8.84
2023-04-08T22:43:33.805Z,9.03
2023-04-08T22:46:03.834Z,9.00
2023-04-08T22:48:33.860Z,10.23
2023-04-08T22:51:04.358Z,9.53
2023-04-08T22:53:37.312Z,9.11
2023-04-08T22:56:08.088Z,8.87
2023-04-08T22:58:38.641Z,8.88
2023-04-08T23:01:14.552Z,9.17
2023-04-08T23:03:45.257Z,8.70
2023-04-08T23:06:15.473Z,8.96
2023-04-08T23:08:48.313Z,8.58
2023-04-08T23:11:18.439Z,8.47
2023-04-08T23:13:48.679Z,8.26
2023-04-08T23:16:25.455Z,8.69
2023-04-08T23:18:55.907Z,8.24
2023-04-08T23:21:27.414Z,8.19
2023-04-08T23:24:00.416Z,8.53
2023-04-08T23:26:31.468Z,8.00
2023-04-08T23:29:01.955Z,8.14
2023-04-08T23:31:32.475Z,7.94
2023-04-08T23:34:02.693Z,8.22
2023-04-08T23:36:32.976Z,7.74
2023-04-08T23:39:06.683Z,8.18
2023-04-08T23:41:37.179Z,7.58
2023-04-08T23:44:08.028Z,7.33
2023-04-08T23:46:38.892Z,7.65
2023-04-08T23:49:09.051Z,7.80
2023-04-08T23:51:39.581Z,7.02
2023-04-08T23:54:13.572Z,7.02
2023-04-08T23:56:44.766Z,7.12
2023-04-08T23:59:16.687Z,7.28
